sensor_id;sensor_type;location;lat;lon;timestamp;P1;durP1;ratioP1;P2;durP2;ratioP2
4885;SDS011;2457;51.788;6.136;2023-11-21T00:00:15;15.77;;;6.80;;
4885;SDS011;2457;51.788;6.136;2023-11-21T00:02:43;15.00;;;6.07;;
4885;SDS011;2457;51.788;6.136;2023-11-21T00:05:12;13.93;;;7.20;;
4885;SDS011;2457;51.788;6.136;2023-11-21T00:07:43;20.90;;;8.10;;
4885;SDS011;2457;51.788;6.136;2023-11-21T00:10:11;14.13;;;6.67;;
4885;SDS011;2457;51.788;6.136;2023-11-21T00:12:40;17.07;;;6.10;;
4885;SDS011;2457;51.788;6.136;2023-11-21T00:15:08;14.63;;;7.10;;
4885;SDS011;2457;51.788;6.136;2023-11-21T00:17:40;15.83;;;7.03;;
4885;SDS011;2457;51.788;6.136;2023-11-21T00:20:09;13.90;;;6.77;;
4885;SDS011;2457;51.788;6.136;2023-11-21T00:22:38;16.90;;;7.60;;
4885;SDS011;2457;51.788;6.136;2023-11-21T00:25:06;12.90;;;6.50;;
4885;SDS011;2457;51.788;6.136;2023-11-21T00:27:35;17.20;;;6.90;;
4885;SDS011;2457;51.788;6.136;2023-11-21T00:30:03;14.13;;;6.40;;
4885;SDS011;2457;51.788;6.136;2023-11-21T00:32:37;12.40;;;5.57;;
4885;SDS011;2457;51.788;6.136;2023-11-21T00:35:04;14.40;;;6.23;;
4885;SDS011;2457;51.788;6.136;2023-11-21T00:37:32;13.60;;;6.43;;
4885;SDS011;2457;51.788;6.136;2023-11-21T00:39:59;14.47;;;6.57;;
4885;SDS011;2457;51.788;6.136;2023-11-21T00:42:28;11.23;;;5.87;;
4885;SDS011;2457;51.788;6.136;2023-11-21T00:44:55;15.37;;;4.90;;
4885;SDS011;2457;51.788;6.136;2023-11-21T00:47:22;13.77;;;6.00;;
4885;SDS011;2457;51.788;6.136;2023-11-21T00:49:50;11.73;;;6.17;;
4885;SDS011;2457;51.788;6.136;2023-11-21T00:52:17;17.73;;;7.10;;
4885;SDS011;2457;51.788;6.136;2023-11-21T00:54:44;16.20;;;7.20;;
4885;SDS011;2457;51.788;6.136;2023-11-21T00:57:11;21.27;;;7.03;;
4885;SDS011;2457;51.788;6.136;2023-11-21T00:59:39;22.43;;;8.70;;
4885;SDS011;2457;51.788;6.136;2023-11-21T01:02:06;17.07;;;8.20;;
4885;SDS011;2457;51.788;6.136;2023-11-21T01:04:35;18.00;;;8.17;;
4885;SDS011;2457;51.788;6.136;2023-11-21T01:07:02;18.50;;;8.30;;
4885;SDS011;2457;51.788;6.136;2023-11-21T01:09:31;19.60;;;8.80;;
4885;SDS011;2457;51.788;6.136;2023-11-21T01:11:58;18.07;;;7.93;;
4885;SDS011;2457;51.788;6.136;2023-11-21T01:14:26;19.63;;;8.60;;
4885;SDS011;2457;51.788;6.136;2023-11-21T01:16:53;17.47;;;8.73;;
4885;SDS011;2457;51.788;6.136;2023-11-21T01:19:20;20.23;;;8.67;;
4885;SDS011;2457;51.788;6.136;2023-11-21T01:21:48;17.57;;;7.97;;
4885;SDS011;2457;51.788;6.136;2023-11-21T01:24:15;17.90;;;7.63;;
4885;SDS011;2457;51.788;6.136;2023-11-21T01:26:42;19.20;;;8.80;;
4885;SDS011;2457;51.788;6.136;2023-11-21T01:29:11;19.60;;;8.87;;
4885;SDS011;2457;51.788;6.136;2023-11-21T01:31:38;22.40;;;9.73;;
4885;SDS011;2457;51.788;6.136;2023-11-21T01:34:05;22.60;;;9.90;;
4885;SDS011;2457;51.788;6.136;2023-11-21T01:36:33;17.37;;;7.90;;
4885;SDS011;2457;51.788;6.136;2023-11-21T01:39:01;18.70;;;9.17;;
4885;SDS011;2457;51.788;6.136;2023-11-21T01:41:30;17.93;;;8.70;;
4885;SDS011;2457;51.788;6.136;2023-11-21T01:43:57;23.97;;;9.57;;
4885;SDS011;2457;51.788;6.136;2023-11-21T01:46:25;18.47;;;8.27;;
4885;SDS011;2457;51.788;6.136;2023-11-21T01:48:52;17.27;;;9.17;;
4885;SDS011;2457;51.788;6.136;2023-11-21T01:51:19;21.70;;;8.83;;
4885;SDS011;2457;51.788;6.136;2023-11-21T01:53:47;21.23;;;9.47;;
4885;SDS011;2457;51.788;6.136;2023-11-21T01:56:14;17.93;;;8.27;;
4885;SDS011;2457;51.788;6.136;2023-11-21T01:58:42;16.07;;;7.67;;
4885;SDS011;2457;51.788;6.136;2023-11-21T02:01:09;22.57;;;9.03;;
4885;SDS011;2457;51.788;6.136;2023-11-21T02:03:37;21.67;;;8.83;;
4885;SDS011;2457;51.788;6.136;2023-11-21T02:06:04;20.40;;;8.23;;
4885;SDS011;2457;51.788;6.136;2023-11-21T02:08:32;18.83;;;9.00;;
4885;SDS011;2457;51.788;6.136;2023-11-21T02:10:59;17.80;;;7.60;;
4885;SDS011;2457;51.788;6.136;2023-11-21T02:13:26;16.97;;;8.97;;
4885;SDS011;2457;51.788;6.136;2023-11-21T02:15:54;22.13;;;9.03;;
4885;SDS011;2457;51.788;6.136;2023-11-21T02:18:22;19.53;;;7.70;;
4885;SDS011;2457;51.788;6.136;2023-11-21T02:20:49;20.10;;;8.20;;
4885;SDS011;2457;51.788;6.136;2023-11-21T02:23:17;20.97;;;8.63;;
4885;SDS011;2457;51.788;6.136;2023-11-21T02:25:44;16.27;;;8.20;;
4885;SDS011;2457;51.788;6.136;2023-11-21T02:28:13;22.60;;;9.17;;
4885;SDS011;2457;51.788;6.136;2023-11-21T02:30:42;15.80;;;7.90;;
4885;SDS011;2457;51.788;6.136;2023-11-21T02:33:10;20.70;;;8.87;;
4885;SDS011;2457;51.788;6.136;2023-11-21T02:35:38;16.57;;;7.97;;
4885;SDS011;2457;51.788;6.136;2023-11-21T02:38:06;18.50;;;8.43;;
4885;SDS011;2457;51.788;6.136;2023-11-21T02:40:33;17.23;;;9.00;;
4885;SDS011;2457;51.788;6.136;2023-11-21T02:43:00;15.53;;;8.30;;
4885;SDS011;2457;51.788;6.136;2023-11-21T02:45:28;20.60;;;9.07;;
4885;SDS011;2457;51.788;6.136;2023-11-21T02:47:55;18.87;;;7.83;;
4885;SDS011;2457;51.788;6.136;2023-11-21T02:50:23;18.73;;;8.63;;
4885;SDS011;2457;51.788;6.136;2023-11-21T02:52:50;13.33;;;7.10;;
4885;SDS011;2457;51.788;6.136;2023-11-21T02:55:17;16.50;;;8.13;;
4885;SDS011;2457;51.788;6.136;2023-11-21T02:57:44;19.00;;;8.20;;
4885;SDS011;2457;51.788;6.136;2023-11-21T03:00:12;14.30;;;6.90;;
4885;SDS011;2457;51.788;6.136;2023-11-21T03:02:42;19.40;;;8.23;;
4885;SDS011;2457;51.788;6.136;2023-11-21T03:05:09;15.60;;;7.77;;
4885;SDS011;2457;51.788;6.136;2023-11-21T03:07:37;14.33;;;7.40;;
4885;SDS011;2457;51.788;6.136;2023-11-21T03:10:04;14.87;;;6.90;;
4885;SDS011;2457;51.788;6.136;2023-11-21T03:12:32;17.27;;;7.40;;
4885;SDS011;2457;51.788;6.136;2023-11-21T03:15:00;17.27;;;7.20;;
4885;SDS011;2457;51.788;6.136;2023-11-21T03:17:28;15.50;;;7.00;;
4885;SDS011;2457;51.788;6.136;2023-11-21T03:19:55;15.30;;;7.10;;
4885;SDS011;2457;51.788;6.136;2023-11-21T03:22:23;14.30;;;7.20;;
4885;SDS011;2457;51.788;6.136;2023-11-21T03:24:50;14.47;;;7.13;;
4885;SDS011;2457;51.788;6.136;2023-11-21T03:27:18;15.10;;;7.33;;
4885;SDS011;2457;51.788;6.136;2023-11-21T03:29:45;16.27;;;6.90;;
4885;SDS011;2457;51.788;6.136;2023-11-21T03:32:13;13.70;;;6.60;;
4885;SDS011;2457;51.788;6.136;2023-11-21T03:34:53;14.90;;;7.90;;
4885;SDS011;2457;51.788;6.136;2023-11-21T03:37:22;11.80;;;5.60;;
4885;SDS011;2457;51.788;6.136;2023-11-21T03:39:49;17.30;;;7.13;;
4885;SDS011;2457;51.788;6.136;2023-11-21T03:42:17;17.47;;;8.03;;
4885;SDS011;2457;51.788;6.136;2023-11-21T03:44:44;13.47;;;6.50;;
4885;SDS011;2457;51.788;6.136;2023-11-21T03:47:11;16.50;;;7.03;;
4885;SDS011;2457;51.788;6.136;2023-11-21T03:49:38;15.07;;;7.33;;
4885;SDS011;2457;51.788;6.136;2023-11-21T03:52:06;13.17;;;6.93;;
4885;SDS011;2457;51.788;6.136;2023-11-21T03:54:34;14.73;;;6.90;;
4885;SDS011;2457;51.788;6.136;2023-11-21T03:57:02;14.23;;;6.83;;
4885;SDS011;2457;51.788;6.136;2023-11-21T03:59:30;13.57;;;5.50;;
4885;SDS011;2457;51.788;6.136;2023-11-21T04:01:57;15.07;;;6.90;;
4885;SDS011;2457;51.788;6.136;2023-11-21T04:04:24;13.80;;;6.13;;
4885;SDS011;2457;51.788;6.136;2023-11-21T04:06:52;15.00;;;6.70;;
4885;SDS011;2457;51.788;6.136;2023-11-21T04:09:19;15.80;;;7.50;;
4885;SDS011;2457;51.788;6.136;2023-11-21T04:11:47;14.43;;;6.93;;
4885;SDS011;2457;51.788;6.136;2023-11-21T04:14:14;17.30;;;7.57;;
4885;SDS011;2457;51.788;6.136;2023-11-21T04:16:42;15.97;;;7.80;;
4885;SDS011;2457;51.788;6.136;2023-11-21T04:19:09;19.93;;;7.27;;
4885;SDS011;2457;51.788;6.136;2023-11-21T04:21:41;15.00;;;7.50;;
4885;SDS011;2457;51.788;6.136;2023-11-21T04:24:08;13.40;;;6.83;;
4885;SDS011;2457;51.788;6.136;2023-11-21T04:26:36;12.83;;;5.90;;
4885;SDS011;2457;51.788;6.136;2023-11-21T04:29:04;12.77;;;6.30;;
4885;SDS011;2457;51.788;6.136;2023-11-21T04:31:31;14.60;;;7.00;;
4885;SDS011;2457;51.788;6.136;2023-11-21T04:33:58;14.53;;;7.43;;
4885;SDS011;2457;51.788;6.136;2023-11-21T04:36:26;14.10;;;7.33;;
4885;SDS011;2457;51.788;6.136;2023-11-21T04:38:53;15.73;;;8.17;;
4885;SDS011;2457;51.788;6.136;2023-11-21T04:41:20;13.60;;;7.17;;
4885;SDS011;2457;51.788;6.136;2023-11-21T04:43:47;12.27;;;6.50;;
4885;SDS011;2457;51.788;6.136;2023-11-21T04:46:15;13.10;;;6.60;;
4885;SDS011;2457;51.788;6.136;2023-11-21T04:48:42;12.90;;;7.13;;
4885;SDS011;2457;51.788;6.136;2023-11-21T04:51:10;13.87;;;6.60;;
4885;SDS011;2457;51.788;6.136;2023-11-21T04:53:39;16.80;;;8.10;;
4885;SDS011;2457;51.788;6.136;2023-11-21T04:56:06;13.97;;;8.07;;
4885;SDS011;2457;51.788;6.136;2023-11-21T04:58:34;16.50;;;7.50;;
4885;SDS011;2457;51.788;6.136;2023-11-21T05:01:01;14.60;;;7.00;;
4885;SDS011;2457;51.788;6.136;2023-11-21T05:03:29;14.87;;;6.97;;
4885;SDS011;2457;51.788;6.136;2023-11-21T05:05:56;12.30;;;6.60;;
4885;SDS011;2457;51.788;6.136;2023-11-21T05:08:26;15.40;;;7.43;;
4885;SDS011;2457;51.788;6.136;2023-11-21T05:10:53;14.87;;;8.00;;
4885;SDS011;2457;51.788;6.136;2023-11-21T05:13:20;14.30;;;6.93;;
4885;SDS011;2457;51.788;6.136;2023-11-21T05:15:50;14.97;;;8.30;;
4885;SDS011;2457;51.788;6.136;2023-11-21T05:18:18;15.13;;;7.33;;
4885;SDS011;2457;51.788;6.136;2023-11-21T05:20:45;15.27;;;8.07;;
4885;SDS011;2457;51.788;6.136;2023-11-21T05:23:13;14.97;;;7.23;;
4885;SDS011;2457;51.788;6.136;2023-11-21T05:25:41;17.70;;;7.43;;
4885;SDS011;2457;51.788;6.136;2023-11-21T05:28:08;13.27;;;7.10;;
4885;SDS011;2457;51.788;6.136;2023-11-21T05:30:35;12.57;;;6.30;;
4885;SDS011;2457;51.788;6.136;2023-11-21T05:33:05;12.83;;;6.30;;
4885;SDS011;2457;51.788;6.136;2023-11-21T05:35:32;16.53;;;7.90;;
4885;SDS011;2457;51.788;6.136;2023-11-21T05:37:59;15.23;;;7.00;;
4885;SDS011;2457;51.788;6.136;2023-11-21T05:40:26;14.07;;;6.20;;
4885;SDS011;2457;51.788;6.136;2023-11-21T05:42:55;14.17;;;7.47;;
4885;SDS011;2457;51.788;6.136;2023-11-21T05:45:23;14.13;;;6.70;;
4885;SDS011;2457;51.788;6.136;2023-11-21T05:47:50;12.90;;;7.43;;
4885;SDS011;2457;51.788;6.136;2023-11-21T05:50:17;13.43;;;7.10;;
4885;SDS011;2457;51.788;6.136;2023-11-21T05:52:45;13.00;;;6.80;;
4885;SDS011;2457;51.788;6.136;2023-11-21T05:55:12;13.60;;;6.70;;
4885;SDS011;2457;51.788;6.136;2023-11-21T05:57:40;16.23;;;7.00;;
4885;SDS011;2457;51.788;6.136;2023-11-21T06:00:08;12.37;;;5.73;;
4885;SDS011;2457;51.788;6.136;2023-11-21T06:02:49;13.87;;;6.73;;
4885;SDS011;2457;51.788;6.136;2023-11-21T06:05:17;13.03;;;6.50;;
4885;SDS011;2457;51.788;6.136;2023-11-21T06:07:45;15.57;;;6.27;;
4885;SDS011;2457;51.788;6.136;2023-11-21T06:10:12;10.33;;;5.77;;
4885;SDS011;2457;51.788;6.136;2023-11-21T06:12:40;16.77;;;6.10;;
4885;SDS011;2457;51.788;6.136;2023-11-21T06:15:09;10.63;;;5.80;;
4885;SDS011;2457;51.788;6.136;2023-11-21T06:17:38;13.90;;;6.57;;
4885;SDS011;2457;51.788;6.136;2023-11-21T06:20:06;13.67;;;6.50;;
4885;SDS011;2457;51.788;6.136;2023-11-21T06:22:39;13.03;;;6.10;;
4885;SDS011;2457;51.788;6.136;2023-11-21T06:25:06;11.97;;;6.03;;
4885;SDS011;2457;51.788;6.136;2023-11-21T06:27:37;12.07;;;5.57;;
4885;SDS011;2457;51.788;6.136;2023-11-21T06:30:04;10.53;;;5.60;;
4885;SDS011;2457;51.788;6.136;2023-11-21T06:32:32;12.43;;;6.70;;
4885;SDS011;2457;51.788;6.136;2023-11-21T06:35:00;12.00;;;5.70;;
4885;SDS011;2457;51.788;6.136;2023-11-21T06:37:28;13.87;;;6.00;;
4885;SDS011;2457;51.788;6.136;2023-11-21T06:39:56;13.10;;;6.20;;
4885;SDS011;2457;51.788;6.136;2023-11-21T06:42:25;15.20;;;5.70;;
4885;SDS011;2457;51.788;6.136;2023-11-21T06:44:53;14.13;;;5.70;;
4885;SDS011;2457;51.788;6.136;2023-11-21T06:47:22;13.40;;;6.80;;
4885;SDS011;2457;51.788;6.136;2023-11-21T06:49:55;18.33;;;5.13;;
4885;SDS011;2457;51.788;6.136;2023-11-21T06:52:19;13.63;;;6.53;;
4885;SDS011;2457;51.788;6.136;2023-11-21T06:54:47;11.83;;;6.17;;
4885;SDS011;2457;51.788;6.136;2023-11-21T06:57:16;12.77;;;6.50;;
4885;SDS011;2457;51.788;6.136;2023-11-21T06:59:43;15.00;;;6.40;;
4885;SDS011;2457;51.788;6.136;2023-11-21T07:02:10;18.10;;;6.83;;
4885;SDS011;2457;51.788;6.136;2023-11-21T07:04:38;14.27;;;5.57;;
4885;SDS011;2457;51.788;6.136;2023-11-21T07:07:06;12.83;;;5.73;;
4885;SDS011;2457;51.788;6.136;2023-11-21T07:09:36;12.00;;;5.83;;
4885;SDS011;2457;51.788;6.136;2023-11-21T07:12:03;12.33;;;6.07;;
4885;SDS011;2457;51.788;6.136;2023-11-21T07:14:35;12.00;;;6.40;;
4885;SDS011;2457;51.788;6.136;2023-11-21T07:17:04;11.43;;;5.93;;
4885;SDS011;2457;51.788;6.136;2023-11-21T07:19:33;13.77;;;6.33;;
4885;SDS011;2457;51.788;6.136;2023-11-21T07:22:00;12.30;;;6.60;;
4885;SDS011;2457;51.788;6.136;2023-11-21T07:24:27;17.13;;;6.70;;
4885;SDS011;2457;51.788;6.136;2023-11-21T07:26:55;14.47;;;6.83;;
4885;SDS011;2457;51.788;6.136;2023-11-21T07:29:23;12.77;;;6.23;;
4885;SDS011;2457;51.788;6.136;2023-11-21T07:31:52;11.67;;;6.37;;
4885;SDS011;2457;51.788;6.136;2023-11-21T07:34:20;10.80;;;5.80;;
4885;SDS011;2457;51.788;6.136;2023-11-21T07:36:48;14.10;;;6.40;;
4885;SDS011;2457;51.788;6.136;2023-11-21T07:39:15;11.50;;;6.27;;
4885;SDS011;2457;51.788;6.136;2023-11-21T07:41:42;12.57;;;5.50;;
4885;SDS011;2457;51.788;6.136;2023-11-21T07:44:11;13.03;;;6.30;;
4885;SDS011;2457;51.788;6.136;2023-11-21T07:46:40;11.83;;;5.27;;
4885;SDS011;2457;51.788;6.136;2023-11-21T07:49:07;10.13;;;5.43;;
4885;SDS011;2457;51.788;6.136;2023-11-21T07:51:35;10.43;;;5.47;;
4885;SDS011;2457;51.788;6.136;2023-11-21T07:54:03;11.00;;;5.60;;
4885;SDS011;2457;51.788;6.136;2023-11-21T07:56:30;10.00;;;4.80;;
4885;SDS011;2457;51.788;6.136;2023-11-21T07:58:57;9.90;;;4.67;;
4885;SDS011;2457;51.788;6.136;2023-11-21T08:01:25;8.43;;;4.10;;
4885;SDS011;2457;51.788;6.136;2023-11-21T08:03:54;12.10;;;4.60;;
4885;SDS011;2457;51.788;6.136;2023-11-21T08:06:23;7.80;;;3.70;;
4885;SDS011;2457;51.788;6.136;2023-11-21T08:08:52;8.20;;;4.20;;
4885;SDS011;2457;51.788;6.136;2023-11-21T08:11:19;10.80;;;5.30;;
4885;SDS011;2457;51.788;6.136;2023-11-21T08:13:47;9.87;;;5.03;;
4885;SDS011;2457;51.788;6.136;2023-11-21T08:16:15;9.30;;;5.00;;
4885;SDS011;2457;51.788;6.136;2023-11-21T08:18:43;8.47;;;4.67;;
4885;SDS011;2457;51.788;6.136;2023-11-21T08:21:12;9.80;;;5.10;;
4885;SDS011;2457;51.788;6.136;2023-11-21T08:23:39;11.40;;;4.47;;
4885;SDS011;2457;51.788;6.136;2023-11-21T08:26:06;9.40;;;4.93;;
4885;SDS011;2457;51.788;6.136;2023-11-21T08:28:35;8.50;;;4.63;;
4885;SDS011;2457;51.788;6.136;2023-11-21T08:31:02;9.43;;;4.53;;
4885;SDS011;2457;51.788;6.136;2023-11-21T08:33:30;10.97;;;5.60;;
4885;SDS011;2457;51.788;6.136;2023-11-21T08:35:58;11.00;;;5.50;;
4885;SDS011;2457;51.788;6.136;2023-11-21T08:38:27;12.87;;;4.60;;
4885;SDS011;2457;51.788;6.136;2023-11-21T08:40:55;11.10;;;5.13;;
4885;SDS011;2457;51.788;6.136;2023-11-21T08:43:22;10.67;;;5.67;;
4885;SDS011;2457;51.788;6.136;2023-11-21T08:45:50;11.77;;;5.10;;
4885;SDS011;2457;51.788;6.136;2023-11-21T08:48:18;9.50;;;4.60;;
4885;SDS011;2457;51.788;6.136;2023-11-21T08:50:45;9.30;;;5.33;;
4885;SDS011;2457;51.788;6.136;2023-11-21T08:53:12;11.37;;;5.67;;
4885;SDS011;2457;51.788;6.136;2023-11-21T08:55:40;9.50;;;4.93;;
4885;SDS011;2457;51.788;6.136;2023-11-21T08:58:07;8.90;;;4.70;;
4885;SDS011;2457;51.788;6.136;2023-11-21T09:00:34;11.40;;;5.97;;
4885;SDS011;2457;51.788;6.136;2023-11-21T09:03:02;8.90;;;4.60;;
4885;SDS011;2457;51.788;6.136;2023-11-21T09:05:31;9.40;;;5.10;;
4885;SDS011;2457;51.788;6.136;2023-11-21T09:07:59;9.60;;;4.93;;
4885;SDS011;2457;51.788;6.136;2023-11-21T09:10:26;9.03;;;4.20;;
4885;SDS011;2457;51.788;6.136;2023-11-21T09:12:54;8.47;;;4.37;;
4885;SDS011;2457;51.788;6.136;2023-11-21T09:15:22;8.97;;;4.40;;
4885;SDS011;2457;51.788;6.136;2023-11-21T09:17:49;10.47;;;4.90;;
4885;SDS011;2457;51.788;6.136;2023-11-21T09:20:16;9.07;;;4.53;;
4885;SDS011;2457;51.788;6.136;2023-11-21T09:22:44;9.03;;;4.30;;
4885;SDS011;2457;51.788;6.136;2023-11-21T09:25:12;11.90;;;4.33;;
4885;SDS011;2457;51.788;6.136;2023-11-21T09:27:39;9.73;;;4.43;;
4885;SDS011;2457;51.788;6.136;2023-11-21T09:30:07;9.23;;;4.50;;
4885;SDS011;2457;51.788;6.136;2023-11-21T09:32:37;7.80;;;4.17;;
4885;SDS011;2457;51.788;6.136;2023-11-21T09:35:06;11.10;;;4.30;;
4885;SDS011;2457;51.788;6.136;2023-11-21T09:37:37;9.17;;;4.87;;
4885;SDS011;2457;51.788;6.136;2023-11-21T09:40:05;12.37;;;5.07;;
4885;SDS011;2457;51.788;6.136;2023-11-21T09:42:36;9.33;;;4.97;;
4885;SDS011;2457;51.788;6.136;2023-11-21T09:45:21;8.97;;;4.90;;
4885;SDS011;2457;51.788;6.136;2023-11-21T09:47:48;10.03;;;5.00;;
4885;SDS011;2457;51.788;6.136;2023-11-21T09:50:17;9.60;;;5.13;;
4885;SDS011;2457;51.788;6.136;2023-11-21T09:53:08;10.63;;;5.37;;
4885;SDS011;2457;51.788;6.136;2023-11-21T09:55:18;9.50;;;5.27;;
4885;SDS011;2457;51.788;6.136;2023-11-21T09:57:49;11.00;;;5.03;;
4885;SDS011;2457;51.788;6.136;2023-11-21T10:00:16;8.60;;;4.37;;
4885;SDS011;2457;51.788;6.136;2023-11-21T10:02:53;11.00;;;5.00;;
4885;SDS011;2457;51.788;6.136;2023-11-21T10:05:19;10.40;;;4.93;;
4885;SDS011;2457;51.788;6.136;2023-11-21T10:07:49;9.70;;;4.73;;
4885;SDS011;2457;51.788;6.136;2023-11-21T10:10:18;9.30;;;4.50;;
4885;SDS011;2457;51.788;6.136;2023-11-21T10:12:47;11.30;;;5.27;;
4885;SDS011;2457;51.788;6.136;2023-11-21T10:15:14;8.70;;;4.30;;
4885;SDS011;2457;51.788;6.136;2023-11-21T10:17:43;11.33;;;5.63;;
4885;SDS011;2457;51.788;6.136;2023-11-21T10:20:11;10.40;;;5.00;;
4885;SDS011;2457;51.788;6.136;2023-11-21T10:22:40;11.50;;;5.90;;
4885;SDS011;2457;51.788;6.136;2023-11-21T10:25:09;13.67;;;6.67;;
4885;SDS011;2457;51.788;6.136;2023-11-21T10:27:37;12.63;;;5.70;;
4885;SDS011;2457;51.788;6.136;2023-11-21T10:30:11;13.87;;;5.50;;
4885;SDS011;2457;51.788;6.136;2023-11-21T10:32:38;12.40;;;6.10;;
4885;SDS011;2457;51.788;6.136;2023-11-21T10:35:07;12.30;;;5.83;;
4885;SDS011;2457;51.788;6.136;2023-11-21T10:37:37;12.67;;;6.23;;
4885;SDS011;2457;51.788;6.136;2023-11-21T10:40:07;13.20;;;5.93;;
4885;SDS011;2457;51.788;6.136;2023-11-21T10:42:36;19.37;;;6.97;;
4885;SDS011;2457;51.788;6.136;2023-11-21T10:45:04;14.30;;;6.27;;
4885;SDS011;2457;51.788;6.136;2023-11-21T10:47:33;13.73;;;6.53;;
4885;SDS011;2457;51.788;6.136;2023-11-21T10:50:02;13.27;;;7.07;;
4885;SDS011;2457;51.788;6.136;2023-11-21T10:52:31;18.43;;;8.10;;
4885;SDS011;2457;51.788;6.136;2023-11-21T10:54:58;16.30;;;6.90;;
4885;SDS011;2457;51.788;6.136;2023-11-21T10:57:25;16.03;;;7.40;;
4885;SDS011;2457;51.788;6.136;2023-11-21T10:59:53;20.20;;;7.97;;
4885;SDS011;2457;51.788;6.136;2023-11-21T11:02:24;17.83;;;7.70;;
4885;SDS011;2457;51.788;6.136;2023-11-21T11:04:54;15.67;;;6.43;;
4885;SDS011;2457;51.788;6.136;2023-11-21T11:07:26;17.37;;;6.60;;
4885;SDS011;2457;51.788;6.136;2023-11-21T11:09:54;13.97;;;7.03;;
4885;SDS011;2457;51.788;6.136;2023-11-21T11:12:21;15.80;;;6.90;;
4885;SDS011;2457;51.788;6.136;2023-11-21T11:14:49;17.67;;;7.70;;
4885;SDS011;2457;51.788;6.136;2023-11-21T11:17:16;15.40;;;7.60;;
4885;SDS011;2457;51.788;6.136;2023-11-21T11:19:46;12.37;;;6.00;;
4885;SDS011;2457;51.788;6.136;2023-11-21T11:22:24;15.50;;;7.17;;
4885;SDS011;2457;51.788;6.136;2023-11-21T11:27:40;11.93;;;5.83;;
4885;SDS011;2457;51.788;6.136;2023-11-21T11:30:11;14.23;;;7.20;;
4885;SDS011;2457;51.788;6.136;2023-11-21T11:37:53;17.63;;;7.83;;
4885;SDS011;2457;51.788;6.136;2023-11-21T11:40:22;13.80;;;6.93;;
4885;SDS011;2457;51.788;6.136;2023-11-21T11:42:56;13.07;;;6.67;;
4885;SDS011;2457;51.788;6.136;2023-11-21T11:45:25;12.93;;;6.50;;
4885;SDS011;2457;51.788;6.136;2023-11-21T11:47:57;12.67;;;6.40;;
4885;SDS011;2457;51.788;6.136;2023-11-21T11:50:24;14.20;;;6.70;;
4885;SDS011;2457;51.788;6.136;2023-11-21T11:52:53;14.93;;;7.00;;
4885;SDS011;2457;51.788;6.136;2023-11-21T11:55:23;15.57;;;7.13;;
4885;SDS011;2457;51.788;6.136;2023-11-21T11:57:51;13.83;;;6.60;;
4885;SDS011;2457;51.788;6.136;2023-11-21T12:00:21;12.67;;;6.27;;
4885;SDS011;2457;51.788;6.136;2023-11-21T12:02:52;16.80;;;8.17;;
4885;SDS011;2457;51.788;6.136;2023-11-21T12:05:20;13.60;;;7.17;;
4885;SDS011;2457;51.788;6.136;2023-11-21T12:07:50;14.77;;;7.13;;
4885;SDS011;2457;51.788;6.136;2023-11-21T12:10:23;14.43;;;7.43;;
4885;SDS011;2457;51.788;6.136;2023-11-21T12:13:05;15.90;;;7.73;;
4885;SDS011;2457;51.788;6.136;2023-11-21T12:15:28;17.07;;;9.60;;
4885;SDS011;2457;51.788;6.136;2023-11-21T12:17:57;14.13;;;7.00;;
4885;SDS011;2457;51.788;6.136;2023-11-21T12:20:27;13.90;;;7.00;;
4885;SDS011;2457;51.788;6.136;2023-11-21T12:22:55;18.07;;;7.73;;
4885;SDS011;2457;51.788;6.136;2023-11-21T12:25:28;13.27;;;6.80;;
4885;SDS011;2457;51.788;6.136;2023-11-21T12:27:58;15.53;;;7.47;;
4885;SDS011;2457;51.788;6.136;2023-11-21T12:30:26;13.00;;;6.97;;
4885;SDS011;2457;51.788;6.136;2023-11-21T12:33:02;13.50;;;6.20;;
4885;SDS011;2457;51.788;6.136;2023-11-21T12:35:30;19.80;;;8.60;;
4885;SDS011;2457;51.788;6.136;2023-11-21T12:38:00;14.87;;;7.83;;
4885;SDS011;2457;51.788;6.136;2023-11-21T12:40:29;14.17;;;7.47;;
4885;SDS011;2457;51.788;6.136;2023-11-21T12:42:57;17.03;;;7.17;;
4885;SDS011;2457;51.788;6.136;2023-11-21T12:45:26;14.60;;;7.10;;
4885;SDS011;2457;51.788;6.136;2023-11-21T12:47:55;12.10;;;6.70;;
4885;SDS011;2457;51.788;6.136;2023-11-21T12:50:30;14.40;;;6.47;;
4885;SDS011;2457;51.788;6.136;2023-11-21T12:52:58;17.33;;;6.63;;
4885;SDS011;2457;51.788;6.136;2023-11-21T12:55:29;11.00;;;5.87;;
4885;SDS011;2457;51.788;6.136;2023-11-21T12:57:56;12.83;;;6.00;;
4885;SDS011;2457;51.788;6.136;2023-11-21T13:00:28;11.50;;;6.00;;
4885;SDS011;2457;51.788;6.136;2023-11-21T13:02:56;12.90;;;6.43;;
4885;SDS011;2457;51.788;6.136;2023-11-21T13:05:29;10.93;;;5.40;;
4885;SDS011;2457;51.788;6.136;2023-11-21T13:07:53;10.70;;;5.70;;
4885;SDS011;2457;51.788;6.136;2023-11-21T13:10:23;14.53;;;7.00;;
4885;SDS011;2457;51.788;6.136;2023-11-21T13:12:55;11.17;;;5.47;;
4885;SDS011;2457;51.788;6.136;2023-11-21T13:15:24;11.30;;;5.60;;
4885;SDS011;2457;51.788;6.136;2023-11-21T13:17:51;10.43;;;5.73;;
4885;SDS011;2457;51.788;6.136;2023-11-21T13:20:20;13.33;;;6.37;;
4885;SDS011;2457;51.788;6.136;2023-11-21T13:22:48;12.73;;;6.27;;
4885;SDS011;2457;51.788;6.136;2023-11-21T13:25:18;11.43;;;5.83;;
4885;SDS011;2457;51.788;6.136;2023-11-21T13:27:46;12.60;;;6.43;;
4885;SDS011;2457;51.788;6.136;2023-11-21T13:30:13;11.60;;;6.00;;
4885;SDS011;2457;51.788;6.136;2023-11-21T13:32:45;11.53;;;5.67;;
4885;SDS011;2457;51.788;6.136;2023-11-21T13:35:13;10.10;;;5.50;;
4885;SDS011;2457;51.788;6.136;2023-11-21T13:37:51;12.47;;;6.50;;
4885;SDS011;2457;51.788;6.136;2023-11-21T13:40:20;15.30;;;7.43;;
4885;SDS011;2457;51.788;6.136;2023-11-21T13:42:49;14.77;;;6.80;;
4885;SDS011;2457;51.788;6.136;2023-11-21T13:45:19;13.03;;;6.67;;
4885;SDS011;2457;51.788;6.136;2023-11-21T13:47:52;16.80;;;7.07;;
4885;SDS011;2457;51.788;6.136;2023-11-21T13:50:21;14.80;;;6.70;;
4885;SDS011;2457;51.788;6.136;2023-11-21T13:52:53;13.83;;;6.30;;
4885;SDS011;2457;51.788;6.136;2023-11-21T13:55:20;10.20;;;5.00;;
4885;SDS011;2457;51.788;6.136;2023-11-21T13:57:49;13.57;;;6.27;;
4885;SDS011;2457;51.788;6.136;2023-11-21T14:00:18;14.53;;;6.00;;
4885;SDS011;2457;51.788;6.136;2023-11-21T14:03:03;13.27;;;5.30;;
4885;SDS011;2457;51.788;6.136;2023-11-21T14:05:32;16.17;;;6.10;;
4885;SDS011;2457;51.788;6.136;2023-11-21T14:08:00;14.03;;;5.73;;
4885;SDS011;2457;51.788;6.136;2023-11-21T14:10:31;11.47;;;5.77;;
4885;SDS011;2457;51.788;6.136;2023-11-21T14:13:09;12.10;;;6.13;;
4885;SDS011;2457;51.788;6.136;2023-11-21T14:15:38;14.10;;;6.10;;
4885;SDS011;2457;51.788;6.136;2023-11-21T14:18:07;13.17;;;6.03;;
4885;SDS011;2457;51.788;6.136;2023-11-21T14:20:36;17.70;;;6.33;;
4885;SDS011;2457;51.788;6.136;2023-11-21T14:23:05;17.43;;;8.30;;
4885;SDS011;2457;51.788;6.136;2023-11-21T14:25:36;15.40;;;6.40;;
4885;SDS011;2457;51.788;6.136;2023-11-21T14:28:05;13.50;;;5.47;;
4885;SDS011;2457;51.788;6.136;2023-11-21T14:30:33;12.73;;;6.30;;
4885;SDS011;2457;51.788;6.136;2023-11-21T14:33:02;13.90;;;6.17;;
4885;SDS011;2457;51.788;6.136;2023-11-21T14:35:30;12.50;;;6.70;;
4885;SDS011;2457;51.788;6.136;2023-11-21T14:37:59;12.10;;;5.33;;
4885;SDS011;2457;51.788;6.136;2023-11-21T14:40:27;14.60;;;6.53;;
4885;SDS011;2457;51.788;6.136;2023-11-21T14:42:55;14.83;;;6.70;;
4885;SDS011;2457;51.788;6.136;2023-11-21T14:45:23;12.57;;;6.60;;
4885;SDS011;2457;51.788;6.136;2023-11-21T14:47:52;11.30;;;5.80;;
4885;SDS011;2457;51.788;6.136;2023-11-21T14:50:24;13.07;;;6.53;;
4885;SDS011;2457;51.788;6.136;2023-11-21T14:53:10;15.30;;;7.57;;
4885;SDS011;2457;51.788;6.136;2023-11-21T14:55:39;11.90;;;5.13;;
4885;SDS011;2457;51.788;6.136;2023-11-21T14:58:11;13.67;;;5.60;;
4885;SDS011;2457;51.788;6.136;2023-11-21T15:00:40;12.53;;;6.17;;
4885;SDS011;2457;51.788;6.136;2023-11-21T15:03:09;12.63;;;4.90;;
4885;SDS011;2457;51.788;6.136;2023-11-21T15:05:37;12.00;;;5.37;;
4885;SDS011;2457;51.788;6.136;2023-11-21T15:08:09;17.87;;;5.00;;
4885;SDS011;2457;51.788;6.136;2023-11-21T15:10:36;13.30;;;6.50;;
4885;SDS011;2457;51.788;6.136;2023-11-21T15:13:08;11.30;;;5.53;;
4885;SDS011;2457;51.788;6.136;2023-11-21T15:15:37;10.33;;;5.30;;
4885;SDS011;2457;51.788;6.136;2023-11-21T15:18:05;13.10;;;6.17;;